Aviation Digital Data Service (ADDS)

Output produced by METARs form (2341 UTC 25 February 2018)
found at http://www.aviationweather.gov/adds/metars/
 
FKKD 252300Z 00000KT 9000 TS BKN013 SCT016CB 25/25 Q1010 NOSIG
TAF FKKD 252300Z 2600/2706 VRB05KT 9999 TS BKN012 SCT016CB 
     TEMPO 2603/2606 2000 BR 
     BECMG 2606/2608 NSW BKN016 FEW020CB
       
FKKR 252000Z 08008KT CAVOK 34/07 Q1007 NOSIG
FKYS 252300Z /////KT 6000 -TSRA FEW003 SCT006 SCT016CB 19/19 Q1014 NOSIG
TAF FKYS 252300Z 2600/2624 VRB05KT 6000 -TSRA BKN006 FEW016CB 
     BECMG 2601/2603 NSW BKN006 
     TEMPO 2604/2606 3000 BR 
     BECMG 2606/2608 BKN016